Time;durP1;ratioP1;P1;durP2;ratioP2;P2;SDS_P1;SDS_P2;PMS_P1;PMS_P2;Temp;Humidity;BMP_temperature;BMP_pressure;BME280_temperature;BME280_humidity;BME280_pressure;Samples;Min_cycle;Max_cycle;Signal;HPM_P1;HPM_P2
2022/05/02 00:00:51;;;;;;;5.3;2.8;;;;;;;;;;;;;-80
2022/05/02 00:02:05;;;;;;;;;;;;;;;8.57;52.49316;102311.6;;;;-80
2022/05/02 00:07:04;;;;;;;;;;;;;;;8.54;52.55664;102307.1;;;;-81
2022/05/02 00:12:04;;;;;;;;;;;;;;;8.5;52.60645;102303.3;;;;-78
2022/05/02 00:17:04;;;;;;;;;;;;;;;8.45;52.52246;102302.3;;;;-81
2022/05/02 00:22:05;;;;;;;;;;;;;;;8.39;52.58301;102303.1;;;;-80
2022/05/02 00:27:04;;;;;;;;;;;;;;;8.39;52.74805;102296.1;;;;-80
2022/05/02 00:30:51;;;;;;;4.3;2.6;;;;;;;;;;;;;-80
2022/05/02 00:32:05;;;;;;;;;;;;;;;8.33;52.45313;102295.6;;;;-79
2022/05/02 00:37:04;;;;;;;;;;;;;;;8.3;52.39453;102288.6;;;;-79
2022/05/02 00:42:04;;;;;;;;;;;;;;;8.26;52.36816;102285.5;;;;-79
2022/05/02 00:47:04;;;;;;;;;;;;;;;8.2;52.60352;102283.3;;;;-80
2022/05/02 00:52:07;;;;;;;;;;;;;;;8.12;52.40527;102281.9;;;;-79
2022/05/02 00:57:05;;;;;;;;;;;;;;;8.07;52.36621;102281.4;;;;-77
2022/05/02 01:00:51;;;;;;;5.9;2.9;;;;;;;;;;;;;-76
2022/05/02 01:02:06;;;;;;;;;;;;;;;8.04;52.2627;102280.4;;;;-74
2022/05/02 01:07:19;;;;;;;;;;;;;;;8;52.22461;102272.2;;;;-79
2022/05/02 01:12:07;;;;;;;;;;;;;;;7.96;51.97559;102274.6;;;;-80
2022/05/02 01:17:06;;;;;;;;;;;;;;;7.91;52.00293;102273.3;;;;-79
2022/05/02 01:22:06;;;;;;;;;;;;;;;7.84;51.79492;102266.5;;;;-79
2022/05/02 01:27:06;;;;;;;;;;;;;;;7.75;51.88281;102266;;;;-79
2022/05/02 01:30:52;;;;;;;4.6;2.4;;;;;;;;;;;;;-79
2022/05/02 01:32:06;;;;;;;;;;;;;;;7.67;51.94043;102265.7;;;;-80
2022/05/02 01:37:05;;;;;;;;;;;;;;;7.58;51.875;102263.8;;;;-79
2022/05/02 01:42:09;;;;;;;;;;;;;;;7.53;51.89063;102259.5;;;;-80
2022/05/02 01:47:04;;;;;;;;;;;;;;;7.47;51.76172;102257.1;;;;-79
2022/05/02 01:52:04;;;;;;;;;;;;;;;7.36;51.99219;102255.5;;;;-80
2022/05/02 01:57:04;;;;;;;;;;;;;;;7.28;52.06055;102248.1;;;;-80
2022/05/02 02:00:52;;;;;;;3.5;2.2;;;;;;;;;;;;;-81
2022/05/02 02:02:04;;;;;;;;;;;;;;;7.23;52.07617;102253.2;;;;-79
2022/05/02 02:07:04;;;;;;;;;;;;;;;7.18;52.2041;102254.1;;;;-79
2022/05/02 02:12:04;;;;;;;;;;;;;;;7.09;52.25879;102249.6;;;;-80
2022/05/02 02:17:04;;;;;;;;;;;;;;;6.97;52.44238;102257.5;;;;-79
2022/05/02 02:27:07;;;;;;;;;;;;;;;6.83;52.61328;102252.9;;;;-81
2022/05/02 02:30:53;;;;;;;4.1;2.3;;;;;;;;;;;;;-80
2022/05/02 02:32:05;;;;;;;;;;;;;;;6.74;52.79102;102254;;;;-79
2022/05/02 02:37:07;;;;;;;;;;;;;;;6.66;52.64844;102255.9;;;;-79
2022/05/02 02:42:04;;;;;;;;;;;;;;;6.56;52.82422;102252.4;;;;-80
2022/05/02 02:47:05;;;;;;;;;;;;;;;6.5;53.07031;102247;;;;-79
2022/05/02 02:52:04;;;;;;;;;;;;;;;6.42;53.05078;102245.6;;;;-80
2022/05/02 02:57:07;;;;;;;;;;;;;;;6.33;53.12891;102245.9;;;;-79
2022/05/02 03:00:53;;;;;;;4.6;2.3;;;;;;;;;;;;;-79
2022/05/02 03:02:05;;;;;;;;;;;;;;;6.27;53.26367;102242.8;;;;-80
2022/05/02 03:07:07;;;;;;;;;;;;;;;6.19;53.27637;102236.5;;;;-80
2022/05/02 03:12:06;;;;;;;;;;;;;;;6.17;53.26172;102234.4;;;;-79
2022/05/02 03:17:04;;;;;;;;;;;;;;;6.07;53.37207;102232.3;;;;-79
2022/05/02 03:22:10;;;;;;;;;;;;;;;6.01;53.49609;102229.6;;;;-79
2022/05/02 03:27:04;;;;;;;;;;;;;;;5.96;53.44629;102230.3;;;;-78
2022/05/02 03:30:52;;;;;;;3.5;2.2;;;;;;;;;;;;;-81
2022/05/02 03:32:04;;;;;;;;;;;;;;;5.91;53.67188;102227.5;;;;-78
2022/05/02 03:37:05;;;;;;;;;;;;;;;5.84;53.64063;102228.4;;;;-79
2022/05/02 03:42:04;;;;;;;;;;;;;;;5.79;53.65723;102229.8;;;;-78
2022/05/02 03:47:05;;;;;;;;;;;;;;;5.72;53.65918;102229.7;;;;-79
2022/05/02 03:52:05;;;;;;;;;;;;;;;5.69;53.78809;102230.2;;;;-79
2022/05/02 03:57:04;;;;;;;;;;;;;;;5.63;53.82324;102227.2;;;;-80
2022/05/02 04:00:52;;;;;;;3.9;2.3;;;;;;;;;;;;;-80
2022/05/02 04:02:05;;;;;;;;;;;;;;;5.59;53.90625;102232;;;;-79
2022/05/02 04:07:04;;;;;;;;;;;;;;;5.56;53.89258;102229.6;;;;-80
2022/05/02 04:12:05;;;;;;;;;;;;;;;5.49;53.90723;102229.3;;;;-80
2022/05/02 04:17:04;;;;;;;;;;;;;;;5.44;53.92285;102230.8;;;;-79
2022/05/02 04:22:05;;;;;;;;;;;;;;;5.4;54.02734;102232.7;;;;-79
2022/05/02 04:27:05;;;;;;;;;;;;;;;5.31;53.90527;102216.1;;;;-79
2022/05/02 04:30:52;;;;;;;5.2;2.5;;;;;;;;;;;;;-79
2022/05/02 04:32:04;;;;;;;;;;;;;;;5.36;53.95703;102230.8;;;;-81
2022/05/02 04:37:05;;;;;;;;;;;;;;;5.35;53.94336;102233.1;;;;-79
2022/05/02 04:42:04;;;;;;;;;;;;;;;5.33;54.01855;102233.3;;;;-79
2022/05/02 04:47:06;;;;;;;;;;;;;;;5.32;53.90723;102230.6;;;;-79
2022/05/02 04:52:05;;;;;;;;;;;;;;;5.33;54.00684;102231.3;;;;-80
2022/05/02 04:57:05;;;;;;;;;;;;;;;5.35;53.85547;102231.3;;;;-79
2022/05/02 05:00:54;;;;;;;4.3;2.6;;;;;;;;;;;;;-79
2022/05/02 05:02:04;;;;;;;;;;;;;;;5.4;53.66406;102233.1;;;;-79
2022/05/02 05:07:11;;;;;;;;;;;;;;;5.36;53.80273;102233.8;;;;-80
2022/05/02 05:12:26;;;;;;;;;;;;;;;5.43;53.49023;102236.7;;;;-78
2022/05/02 05:17:14;;;;;;;;;;;;;;;5.48;53.47559;102239.7;;;;-79
2022/05/02 05:22:15;;;;;;;;;;;;;;;5.49;53.56348;102240.1;;;;-80
2022/05/02 05:27:14;;;;;;;;;;;;;;;5.56;53.35254;102247.3;;;;-81
2022/05/02 05:30:53;;;;;;;4.6;2.5;;;;;;;;;;;;;-75
2022/05/02 05:32:11;;;;;;;;;;;;;;;5.69;53.43652;102244.9;;;;-74
2022/05/02 05:37:21;;;;;;;;;;;;;;;5.88;53.71289;102239.2;;;;-75
2022/05/02 05:42:11;;;;;;;;;;;;;;;6.33;53.58008;102228.8;;;;-75
2022/05/02 05:47:18;;;;;;;;;;;;;;;7.15;51.71191;102228.7;;;;-75
2022/05/02 05:52:10;;;;;;;;;;;;;;;7.85;50.56543;102225;;;;-75
2022/05/02 05:57:10;;;;;;;;;;;;;;;8.52;50.04395;102233.5;;;;-76
2022/05/02 06:01:00;;;;;;;5.2;2.9;;;;;;;;;;;;;-75
2022/05/02 06:02:10;;;;;;;;;;;;;;;9.14;49.32422;102237.6;;;;-75
2022/05/02 06:07:05;;;;;;;;;;;;;;;9.72;48.93457;102235.2;;;;-74
2022/05/02 06:12:05;;;;;;;;;;;;;;;10.29;48.51855;102232;;;;-76
2022/05/02 06:22:05;;;;;;;;;;;;;;;11.29;47.21973;102230.3;;;;-74
2022/05/02 06:27:05;;;;;;;;;;;;;;;11.78;46.5332;102225.6;;;;-75
2022/05/02 06:30:55;;;;;;;7.4;3.5;;;;;;;;;;;;;-75
2022/05/02 06:32:07;;;;;;;;;;;;;;;12.28;46.27148;102218.4;;;;-76
2022/05/02 06:37:12;;;;;;;;;;;;;;;12.74;45.63477;102226.8;;;;-75
2022/05/02 06:42:13;;;;;;;;;;;;;;;13.19;45.2666;102228;;;;-76
2022/05/02 06:47:11;;;;;;;;;;;;;;;13.58;45.12695;102229.2;;;;-77
2022/05/02 06:52:11;;;;;;;;;;;;;;;13.97;44.83887;102229.9;;;;-76
2022/05/02 06:57:07;;;;;;;;;;;;;;;14.3;44.46777;102227.5;;;;-75
2022/05/02 07:00:56;;;;;;;8.3;4.2;;;;;;;;;;;;;-76
2022/05/02 07:02:09;;;;;;;;;;;;;;;14.66;44.30078;102225.8;;;;-75
2022/05/02 07:07:11;;;;;;;;;;;;;;;15.1;43.71289;102226.8;;;;-75
2022/05/02 07:12:11;;;;;;;;;;;;;;;15.46;43.62305;102222.8;;;;-76
2022/05/02 07:17:08;;;;;;;;;;;;;;;15.82;43.1377;102222.3;;;;-75
2022/05/02 07:22:06;;;;;;;;;;;;;;;16.17;42.92383;102219;;;;-76
2022/05/02 07:27:14;;;;;;;;;;;;;;;16.48;43.0791;102218.5;;;;-78
2022/05/02 07:30:59;;;;;;;7;4.5;;;;;;;;;;;;;-76
2022/05/02 07:32:04;;;;;;;;;;;;;;;16.69;42.95215;102216;;;;-76
2022/05/02 07:37:07;;;;;;;;;;;;;;;16.93;42.65723;102212.6;;;;-76
2022/05/02 07:42:08;;;;;;;;;;;;;;;17.27;42.83691;102219;;;;-76
2022/05/02 07:47:09;;;;;;;;;;;;;;;17.55;43.26172;102216.8;;;;-76
2022/05/02 07:52:05;;;;;;;;;;;;;;;17.9;42.88672;102216.6;;;;-75
2022/05/02 07:57:07;;;;;;;;;;;;;;;18.25;42.56836;102214.7;;;;-75
2022/05/02 08:00:58;;;;;;;7.3;4.4;;;;;;;;;;;;;-75
2022/05/02 08:02:07;;;;;;;;;;;;;;;18.63;42.45605;102216;;;;-76
2022/05/02 08:07:13;;;;;;;;;;;;;;;19.05;41.94922;102217.3;;;;-77
2022/05/02 08:12:07;;;;;;;;;;;;;;;19.41;41.62891;102217.5;;;;-77
2022/05/02 08:17:06;;;;;;;;;;;;;;;19.79;40.85254;102221.8;;;;-78
2022/05/02 08:27:22;;;;;;;;;;;;;;;20.52;39.94629;102223.7;;;;-76
2022/05/02 08:31:01;;;;;;;6.9;4.1;;;;;;;;;;;;;-76
2022/05/02 08:32:13;;;;;;;;;;;;;;;20.87;39.61133;102217.7;;;;-78
2022/05/02 08:37:12;;;;;;;;;;;;;;;21.19;39.26074;102218.8;;;;-77
2022/05/02 08:42:21;;;;;;;;;;;;;;;21.55;38.83398;102217.7;;;;-77
2022/05/02 08:47:25;;;;;;;;;;;;;;;21.84;38.7666;102218.8;;;;-78
2022/05/02 08:52:20;;;;;;;;;;;;;;;22.08;38.41992;102219.7;;;;-76
2022/05/02 08:57:19;;;;;;;;;;;;;;;22.35;38.05176;102209;;;;-78
2022/05/02 09:01:07;;;;;;;6.4;4;;;;;;;;;;;;;-75
2022/05/02 09:02:15;;;;;;;;;;;;;;;22.65;37.73145;102205.4;;;;-76
2022/05/02 09:07:15;;;;;;;;;;;;;;;22.93;37.43164;102203;;;;-77
2022/05/02 09:12:19;;;;;;;;;;;;;;;23.24;37.00781;102201.1;;;;-78
2022/05/02 09:17:17;;;;;;;;;;;;;;;23.61;36.41504;102204.4;;;;-78
2022/05/02 09:22:26;;;;;;;;;;;;;;;23.89;36.2998;102208.1;;;;-77
2022/05/02 09:27:16;;;;;;;;;;;;;;;24.14;35.86914;102204;;;;-78
2022/05/02 09:31:10;;;;;;;7.1;3.7;;;;;;;;;;;;;-76
2022/05/02 09:32:11;;;;;;;;;;;;;;;24.36;35.37695;102198.2;;;;-78
2022/05/02 09:37:06;;;;;;;;;;;;;;;24.67;34.60254;102192.3;;;;-79
2022/05/02 09:42:20;;;;;;;;;;;;;;;24.97;34.39453;102190.4;;;;-76
2022/05/02 09:52:13;;;;;;;;;;;;;;;25.51;33.25098;102189.9;;;;-81
2022/05/02 09:57:05;;;;;;;;;;;;;;;25.84;33.53223;102193.2;;;;-80
2022/05/02 10:01:21;;;;;;;5;2.9;;;;;;;;;;;;;-82
2022/05/02 10:02:06;;;;;;;;;;;;;;;26.12;32.54102;102184.7;;;;-83
2022/05/02 10:07:09;;;;;;;;;;;;;;;26.39;33.35156;102188.8;;;;-82
2022/05/02 10:12:21;;;;;;;;;;;;;;;26.64;33.8584;102186.5;;;;-82
2022/05/02 10:17:17;;;;;;;;;;;;;;;26.9;33.21484;102182.4;;;;-83
2022/05/02 10:22:28;;;;;;;;;;;;;;;27.13;33.42969;102181.1;;;;-82
2022/05/02 10:27:10;;;;;;;;;;;;;;;27.35;33.41113;102182.7;;;;-81
2022/05/02 10:31:25;;;;;;;3.7;2.5;;;;;;;;;;;;;-81
2022/05/02 10:32:08;;;;;;;;;;;;;;;27.54;33.66992;102170.7;;;;-82
2022/05/02 10:37:05;;;;;;;;;;;;;;;27.75;33.82617;102172.1;;;;-79
2022/05/02 10:42:09;;;;;;;;;;;;;;;27.92;32.8584;102169.4;;;;-81
2022/05/02 10:47:15;;;;;;;;;;;;;;;28.06;32.56543;102167.6;;;;-83
2022/05/02 10:52:08;;;;;;;;;;;;;;;28.19;31.66309;102171;;;;-82
2022/05/02 10:57:09;;;;;;;;;;;;;;;28.24;31.46777;102169.5;;;;-82
2022/05/02 11:01:35;;;;;;;4.8;3;;;;;;;;;;;;;-82
2022/05/02 11:02:16;;;;;;;;;;;;;;;28.31;31.57813;102166.6;;;;-83
2022/05/02 11:07:09;;;;;;;;;;;;;;;28.42;31.17676;102166.8;;;;-83
2022/05/02 11:11:40;;;;;;;;;;;;;;;28.54;31.17383;102162.4;;;;-81
2022/05/02 11:16:30;;;;;;;;;;;;;;;28.71;30.98633;102159.7;;;;-83
2022/05/02 11:21:38;;;;;;;;;;;;;;;28.85;31.62695;102157;;;;-82
2022/05/02 11:26:37;;;;;;;;;;;;;;;28.92;30.97656;102155.1;;;;-79
2022/05/02 11:31:35;;;;;;;6.2;3.3;;;;;;;;;;;;;-83
2022/05/02 11:32:01;;;;;;;;;;;;;;;29.03;29.41504;102151.9;;;;-80
2022/05/02 11:36:38;;;;;;;;;;;;;;;29.15;29.77539;102148.4;;;;-83
2022/05/02 11:41:35;;;;;;;;;;;;;;;29.2;29.25;102147.3;;;;-81
2022/05/02 11:46:27;;;;;;;;;;;;;;;29.22;29.45117;102144.4;;;;-81
2022/05/02 11:51:38;;;;;;;;;;;;;;;29.3;29.31543;102138.7;;;;-81
2022/05/02 11:56:28;;;;;;;;;;;;;;;29.39;29.96582;102142.4;;;;-80
2022/05/02 12:01:37;;;;;;;5.1;2.3;;;;;;;;;;;;;-82
2022/05/02 12:01:58;;;;;;;;;;;;;;;29.37;31.05371;102127.4;;;;-80
2022/05/02 12:06:37;;;;;;;;;;;;;;;29.52;30.20898;102137.5;;;;-81
2022/05/02 12:11:26;;;;;;;;;;;;;;;29.6;30.13281;102137.2;;;;-81
2022/05/02 12:16:38;;;;;;;;;;;;;;;29.68;31.08789;102133.8;;;;-82
2022/05/02 12:21:39;;;;;;;;;;;;;;;29.78;31.49219;102136.9;;;;-79
2022/05/02 12:26:36;;;;;;;;;;;;;;;29.87;31.46484;102129.5;;;;-81
2022/05/02 12:31:39;;;;;;;;;;;;;;;29.96;31.42285;102116.8;;;;-82
2022/05/02 12:32:14;;;;;;;;;;;;;;;;;;;;;
2022/05/02 12:39:28;;;;;;;;;;;;;;;30.12;31.38672;102116.1;;;;-83
2022/05/02 12:44:34;;;;;;;;;;;;;;;30.24;31.25488;102110.9;;;;-83
2022/05/02 12:49:34;;;;;;;;;;;;;;;30.36;31.41602;102110;;;;-82
2022/05/02 12:54:30;;;;;;;;;;;;;;;30.45;30.94141;102109.3;;;;-83
2022/05/02 13:01:45;;;;;;;4.2;2.2;;;;;;;;;;;;;-82
2022/05/02 13:04:29;;;;;;;;;;;;;;;30.61;30.07031;102107.5;;;;-83
2022/05/02 13:09:36;;;;;;;;;;;;;;;30.65;29.49609;102104;;;;-83
2022/05/02 13:14:32;;;;;;;;;;;;;;;30.65;29.68457;102096.7;;;;-82
2022/05/02 13:19:35;;;;;;;;;;;;;;;30.56;29.44434;102086.9;;;;-82
2022/05/02 13:24:35;;;;;;;;;;;;;;;30.52;29.13574;102090;;;;-80
2022/05/02 13:29:43;;;;;;;;;;;;;;;30.45;28.56836;102078;;;;-82
2022/05/02 13:31:44;;;;;;;3.7;1.7;;;;;;;;;;;;;-84
2022/05/02 13:39:36;;;;;;;;;;;;;;;30.42;28.43652;102071.1;;;;-83
2022/05/02 13:44:33;;;;;;;;;;;;;;;30.43;28.79004;102071.1;;;;-83
2022/05/02 13:49:36;;;;;;;;;;;;;;;30.43;28.64844;102067.6;;;;-81
2022/05/02 13:54:33;;;;;;;;;;;;;;;30.33;27.53809;102066.3;;;;-82
2022/05/02 13:59:36;;;;;;;;;;;;;;;30.35;27.98535;102055;;;;-82
2022/05/02 14:01:54;;;;;;;2.8;1.6;;;;;;;;;;;;;-82
2022/05/02 14:04:38;;;;;;;;;;;;;;;30.33;28.23047;102057;;;;-83
2022/05/02 14:09:40;;;;;;;;;;;;;;;30.32;28.3125;102059.7;;;;-82
2022/05/02 14:14:28;;;;;;;;;;;;;;;30.33;27.59668;102059.8;;;;-84
2022/05/02 14:19:29;;;;;;;;;;;;;;;30.33;28.52539;102053.8;;;;-84
2022/05/02 14:24:27;;;;;;;;;;;;;;;30.23;27.55566;102048;;;;-84
2022/05/02 14:29:33;;;;;;;;;;;;;;;30.16;27.44531;102048.4;;;;-83
2022/05/02 14:31:47;;;;;;;3.9;1.6;;;;;;;;;;;;;-84
2022/05/02 14:34:29;;;;;;;;;;;;;;;30.08;27.78027;102049.4;;;;-82
2022/05/02 14:39:26;;;;;;;;;;;;;;;30.06;27.74414;102043.2;;;;-82
2022/05/02 14:44:28;;;;;;;;;;;;;;;30;27.69434;102040.4;;;;-82
2022/05/02 14:49:27;;;;;;;;;;;;;;;29.83;27.06152;102042.3;;;;-82
2022/05/02 14:54:27;;;;;;;;;;;;;;;29.75;27.24414;102047.6;;;;-82
2022/05/02 14:59:28;;;;;;;;;;;;;;;29.66;27.80176;102045;;;;-82
2022/05/02 15:02:05;;;;;;;2.5;1.2;;;;;;;;;;;;;-82
2022/05/02 15:04:28;;;;;;;;;;;;;;;29.64;27.95313;102043.5;;;;-84
2022/05/02 15:14:53;;;;;;;;;;;;;;;29.48;26.71191;102043.3;;;;-83
2022/05/02 15:19:41;;;;;;;;;;;;;;;29.34;26.7627;102033.8;;;;-83
2022/05/02 15:24:41;;;;;;;;;;;;;;;29.21;27.10547;102035.2;;;;-83
2022/05/02 15:39:36;;;;;;;;;;;;;;;28.71;26.72559;102024.4;;;;-83
2022/05/02 15:44:32;;;;;;;;;;;;;;;28.49;26.7002;102024.3;;;;-82
2022/05/02 15:49:31;;;;;;;;;;;;;;;28.31;27.23926;102027.4;;;;-82
2022/05/02 15:54:56;;;;;;;;;;;;;;;28.11;26.94727;102024.9;;;;-84
2022/05/02 16:01:52;;;;;;;;;;;;;;;27.83;27.29199;102022.6;;;;-81
2022/05/02 16:02:06;;;;;;;3;0.9;;;;;;;;;;;;;-81
2022/05/02 16:07:01;;;;;;;;;;;;;;;27.64;27.1416;102019.2;;;;-80
2022/05/02 16:11:50;;;;;;;;;;;;;;;27.46;27.38672;102014.1;;;;-81
2022/05/02 16:16:50;;;;;;;;;;;;;;;27.27;27.60938;102017.2;;;;-80
2022/05/02 16:21:43;;;;;;;;;;;;;;;27.09;27.80762;102020.8;;;;-81
2022/05/02 16:26:43;;;;;;;;;;;;;;;26.87;27.74805;102018.4;;;;-80
2022/05/02 16:31:42;;;;;;;;;;;;;;;26.65;27.78027;102016.3;;;;-79
2022/05/02 16:32:10;;;;;;;1.4;0.8;;;;;;;;;;;;;-79
2022/05/02 16:36:43;;;;;;;;;;;;;;;26.41;28.0459;102024.5;;;;-80
2022/05/02 16:41:45;;;;;;;;;;;;;;;26.18;27.99609;102024.5;;;;-79
2022/05/02 16:46:44;;;;;;;;;;;;;;;25.9;27.50195;102025.5;;;;-79
2022/05/02 16:51:41;;;;;;;;;;;;;;;25.59;28.43652;102031.7;;;;-80
2022/05/02 16:56:43;;;;;;;;;;;;;;;25.35;28.73535;102033.9;;;;-81
2022/05/02 17:01:45;;;;;;;;;;;;;;;25.06;28.75098;102041.8;;;;-80
2022/05/02 17:02:21;;;;;;;1.5;1;;;;;;;;;;;;;-79
2022/05/02 17:06:51;;;;;;;;;;;;;;;24.78;29.13867;102035;;;;-80
2022/05/02 17:11:46;;;;;;;;;;;;;;;24.51;29.39941;102038.4;;;;-82
2022/05/02 17:16:44;;;;;;;;;;;;;;;24.21;29.80859;102033.4;;;;-81
2022/05/02 17:21:48;;;;;;;;;;;;;;;23.93;30.17188;102038;;;;-79
2022/05/02 17:26:51;;;;;;;;;;;;;;;23.62;30.15137;102038.9;;;;-80
2022/05/02 17:31:45;;;;;;;;;;;;;;;23.36;30.48047;102040.4;;;;-80
2022/05/02 17:32:12;;;;;;;1.8;1;;;;;;;;;;;;;-80
2022/05/02 17:36:50;;;;;;;;;;;;;;;23.07;30.65723;102034.9;;;;-80
2022/05/02 17:41:43;;;;;;;;;;;;;;;22.79;30.99609;102037.8;;;;-81
2022/05/02 17:46:48;;;;;;;;;;;;;;;22.49;31.20605;102037.7;;;;-79
2022/05/02 17:51:43;;;;;;;;;;;;;;;22.15;31.38965;102044.2;;;;-81
2022/05/02 17:56:45;;;;;;;;;;;;;;;21.85;31.66797;102046.1;;;;-80
2022/05/02 18:01:42;;;;;;;;;;;;;;;21.51;31.87402;102053.2;;;;-80
2022/05/02 18:02:14;;;;;;;3.6;1.4;;;;;;;;;;;;;-80
2022/05/02 18:06:42;;;;;;;;;;;;;;;21.19;31.87402;102055.6;;;;-78
2022/05/02 18:16:49;;;;;;;;;;;;;;;20.59;32.42871;102066.4;;;;-80
2022/05/02 18:21:46;;;;;;;;;;;;;;;20.28;32.68164;102063.2;;;;-80
2022/05/02 18:26:43;;;;;;;;;;;;;;;19.96;32.89844;102063.7;;;;-80
2022/05/02 18:31:42;;;;;;;;;;;;;;;19.63;33.11426;102067.2;;;;-79
2022/05/02 18:32:24;;;;;;;2.6;1.3;;;;;;;;;;;;;-80
2022/05/02 18:36:51;;;;;;;;;;;;;;;19.28;33.3623;102065.8;;;;-80
2022/05/02 18:41:52;;;;;;;;;;;;;;;18.91;33.51758;102072.4;;;;-79
2022/05/02 18:56:45;;;;;;;;;;;;;;;17.84;34.28125;102079.4;;;;-81
2022/05/02 19:01:45;;;;;;;;;;;;;;;17.49;34.48145;102077.7;;;;-80
2022/05/02 19:02:21;;;;;;;2.5;1.1;;;;;;;;;;;;;-80
2022/05/02 19:06:52;;;;;;;;;;;;;;;17.14;34.89941;102087.2;;;;-82
2022/05/02 19:11:48;;;;;;;;;;;;;;;16.81;35.24805;102098.8;;;;-81
2022/05/02 19:17:07;;;;;;;;;;;;;;;16.5;35.50684;102105.2;;;;-81
2022/05/02 19:21:52;;;;;;;;;;;;;;;16.19;35.78906;102105.8;;;;-81
2022/05/02 19:26:55;;;;;;;;;;;;;;;15.89;36.32031;102116.2;;;;-80
2022/05/02 19:31:51;;;;;;;;;;;;;;;15.6;36.61426;102112;;;;-83
2022/05/02 19:41:37;;;;;;;;;;;;;;;15.07;37.25;102117;;;;-83
2022/05/02 19:46:46;;;;;;;;;;;;;;;14.83;37.73828;102119.8;;;;-82
2022/05/02 19:51:30;;;;;;;;;;;;;;;14.58;38.0791;102119.8;;;;-82
2022/05/02 19:56:45;;;;;;;;;;;;;;;14.34;38.3291;102117.8;;;;-81
2022/05/02 20:01:45;;;;;;;;;;;;;;;14.11;38.8291;102118.5;;;;-82
2022/05/02 20:02:26;;;;;;;4.1;2.2;;;;;;;;;;;;;-82
2022/05/02 20:11:49;;;;;;;;;;;;;;;13.69;39.46875;102120.7;;;;-81
2022/05/02 20:16:32;;;;;;;;;;;;;;;13.47;39.73047;102114.5;;;;-82
2022/05/02 20:21:30;;;;;;;;;;;;;;;13.28;40.42285;102116.4;;;;-81
2022/05/02 20:26:30;;;;;;;;;;;;;;;13.1;40.68848;102121.8;;;;-82
2022/05/02 20:36:47;;;;;;;;;;;;;;;12.76;41.42188;102115.9;;;;-82
2022/05/02 20:41:29;;;;;;;;;;;;;;;12.59;41.7207;102115;;;;-83
2022/05/02 20:46:39;;;;;;;;;;;;;;;12.45;42.09961;102115.2;;;;-83
2022/05/02 20:51:36;;;;;;;;;;;;;;;12.31;42.51367;102110.7;;;;-82
2022/05/02 20:56:29;;;;;;;;;;;;;;;12.15;42.66602;102116.2;;;;-81
2022/05/02 21:02:42;;;;;;;5.8;3.2;;;;;;;;;;;;;-81
2022/05/02 21:06:40;;;;;;;;;;;;;;;11.89;43.24707;102112.5;;;;-82
2022/05/02 21:11:48;;;;;;;;;;;;;;;11.73;43.36523;102113.4;;;;-83
2022/05/02 21:16:43;;;;;;;;;;;;;;;11.62;43.55664;102113.9;;;;-84
2022/05/02 21:21:46;;;;;;;;;;;;;;;11.48;43.83398;102112;;;;-82
2022/05/02 21:26:44;;;;;;;;;;;;;;;11.36;44.14648;102114.1;;;;-83
2022/05/02 21:31:53;;;;;;;;;;;;;;;11.26;44.21484;102116.9;;;;-82
2022/05/02 21:32:37;;;;;;;7.1;3.9;;;;;;;;;;;;;-83
2022/05/02 21:41:54;;;;;;;;;;;;;;;11.07;44.66602;102114;;;;-84
2022/05/02 21:46:39;;;;;;;;;;;;;;;10.93;44.70898;102119.3;;;;-84
2022/05/02 21:56:10;;;;;;;;;;;;;;;10.76;45.08105;102123;;;;-80
2022/05/02 22:01:10;;;;;;;;;;;;;;;10.64;45.18164;102121.4;;;;-80
2022/05/02 22:02:25;;;;;;;8;4.1;;;;;;;;;;;;;-80
2022/05/02 22:06:10;;;;;;;;;;;;;;;10.55;45.47461;102123.8;;;;-81
2022/05/02 22:11:10;;;;;;;;;;;;;;;10.44;45.55176;102120.5;;;;-79
2022/05/02 22:16:10;;;;;;;;;;;;;;;10.35;45.7998;102120.3;;;;-79
2022/05/02 22:21:13;;;;;;;;;;;;;;;10.26;46.15918;102120.1;;;;-79
2022/05/02 22:26:10;;;;;;;;;;;;;;;10.18;46.10547;102116.6;;;;-80
2022/05/02 22:31:09;;;;;;;;;;;;;;;10.09;46.29785;102110.8;;;;-80
2022/05/02 22:32:26;;;;;;;8.4;4.6;;;;;;;;;;;;;-80
2022/05/02 22:36:11;;;;;;;;;;;;;;;9.98;46.4082;102112.4;;;;-80
2022/05/02 22:41:12;;;;;;;;;;;;;;;9.9;46.41113;102107.8;;;;-79
2022/05/02 22:46:10;;;;;;;;;;;;;;;9.81;46.53418;102108.6;;;;-82
2022/05/02 22:51:09;;;;;;;;;;;;;;;9.72;46.80371;102112.2;;;;-80
2022/05/02 22:56:10;;;;;;;;;;;;;;;9.64;46.79492;102118.2;;;;-80
2022/05/02 23:01:10;;;;;;;;;;;;;;;9.55;46.96387;102115.4;;;;-80
2022/05/02 23:02:32;;;;;;;7.7;4.8;;;;;;;;;;;;;-79
2022/05/02 23:06:11;;;;;;;;;;;;;;;9.45;47.28809;102117.4;;;;-80
2022/05/02 23:11:10;;;;;;;;;;;;;;;9.37;47.46875;102123.2;;;;-80
2022/05/02 23:16:11;;;;;;;;;;;;;;;9.31;47.42871;102121.1;;;;-81
2022/05/02 23:21:10;;;;;;;;;;;;;;;9.22;47.75293;102121;;;;-80
2022/05/02 23:26:10;;;;;;;;;;;;;;;9.14;47.7207;102121.1;;;;-81
2022/05/02 23:31:14;;;;;;;;;;;;;;;9.06;47.99121;102114;;;;-82
2022/05/02 23:32:33;;;;;;;9.1;4.9;;;;;;;;;;;;;-81
2022/05/02 23:36:19;;;;;;;;;;;;;;;8.97;47.98145;102110.4;;;;-81
2022/05/02 23:41:12;;;;;;;;;;;;;;;8.91;48.17578;102105.7;;;;-79
2022/05/02 23:46:17;;;;;;;;;;;;;;;8.87;48.37109;102106.8;;;;-81
2022/05/02 23:51:16;;;;;;;;;;;;;;;8.78;48.30566;102107.1;;;;-79
2022/05/02 23:56:16;;;;;;;;;;;;;;;8.69;48.29492;102094.4;;;;-75
